sensor_id;sensor_type;location;lat;lon;timestamp;pressure;altitude;pressure_sealevel;temperature;humidity
46954;BME280;32707;43.886;12.874;2022-07-15T00:01:59;101241.81;;;23.97;42.09
46954;BME280;32707;43.886;12.874;2022-07-15T00:04:24;101250.81;;;23.96;42.34
46954;BME280;32707;43.886;12.874;2022-07-15T00:06:50;101240.56;;;23.91;42.26
46954;BME280;32707;43.886;12.874;2022-07-15T00:09:18;101243.00;;;23.89;42.50
46954;BME280;32707;43.886;12.874;2022-07-15T00:11:43;101235.66;;;23.84;42.40
46954;BME280;32707;43.886;12.874;2022-07-15T00:14:09;101228.28;;;23.83;42.45
46954;BME280;32707;43.886;12.874;2022-07-15T00:16:34;101233.59;;;23.81;42.62
46954;BME280;32707;43.886;12.874;2022-07-15T00:19:00;101232.38;;;23.79;42.81
46954;BME280;32707;43.886;12.874;2022-07-15T00:21:26;101222.09;;;23.74;42.62
46954;BME280;32707;43.886;12.874;2022-07-15T00:23:51;101223.34;;;23.73;42.89
46954;BME280;32707;43.886;12.874;2022-07-15T00:26:17;101224.97;;;23.71;42.88
46954;BME280;32707;43.886;12.874;2022-07-15T00:28:42;101222.09;;;23.67;43.08
46954;BME280;32707;43.886;12.874;2022-07-15T00:31:08;101226.53;;;23.61;43.07
46954;BME280;32707;43.886;12.874;2022-07-15T00:33:33;101218.78;;;23.58;43.27
46954;BME280;32707;43.886;12.874;2022-07-15T00:35:59;101211.38;;;23.49;43.37
46954;BME280;32707;43.886;12.874;2022-07-15T00:38:24;101215.00;;;23.36;43.51
46954;BME280;32707;43.886;12.874;2022-07-15T00:40:50;101210.47;;;23.31;43.88
46954;BME280;32707;43.886;12.874;2022-07-15T00:43:17;101220.25;;;23.26;44.02
46954;BME280;32707;43.886;12.874;2022-07-15T00:45:44;101218.19;;;23.27;43.97
46954;BME280;32707;43.886;12.874;2022-07-15T00:48:10;101214.53;;;23.26;44.01
46954;BME280;32707;43.886;12.874;2022-07-15T00:50:36;101214.91;;;23.21;44.05
46954;BME280;32707;43.886;12.874;2022-07-15T00:55:32;101206.31;;;23.14;44.18
46954;BME280;32707;43.886;12.874;2022-07-15T00:58:01;101201.44;;;23.15;44.31
46954;BME280;32707;43.886;12.874;2022-07-15T01:00:28;101208.75;;;23.16;44.20
46954;BME280;32707;43.886;12.874;2022-07-15T01:02:54;101200.22;;;23.19;43.93
46954;BME280;32707;43.886;12.874;2022-07-15T01:05:21;101214.13;;;23.24;44.13
46954;BME280;32707;43.886;12.874;2022-07-15T01:07:48;101205.97;;;23.26;44.11
46954;BME280;32707;43.886;12.874;2022-07-15T01:10:18;101198.63;;;23.25;44.28
46954;BME280;32707;43.886;12.874;2022-07-15T01:12:46;101199.47;;;23.26;44.26
46954;BME280;32707;43.886;12.874;2022-07-15T01:15:12;101194.56;;;23.26;44.25
46954;BME280;32707;43.886;12.874;2022-07-15T01:17:38;101201.06;;;23.27;44.29
46954;BME280;32707;43.886;12.874;2022-07-15T01:20:04;101200.25;;;23.23;44.33
46954;BME280;32707;43.886;12.874;2022-07-15T01:22:30;101192.47;;;23.20;44.46
46954;BME280;32707;43.886;12.874;2022-07-15T01:24:56;101191.25;;;23.17;44.56
46954;BME280;32707;43.886;12.874;2022-07-15T01:27:21;101199.00;;;23.17;44.54
46954;BME280;32707;43.886;12.874;2022-07-15T01:29:47;101187.56;;;23.13;44.67
46954;BME280;32707;43.886;12.874;2022-07-15T01:32:12;101192.88;;;23.15;44.74
46954;BME280;32707;43.886;12.874;2022-07-15T01:34:38;101188.38;;;23.14;44.77
46954;BME280;32707;43.886;12.874;2022-07-15T01:37:03;101173.69;;;23.15;44.62
46954;BME280;32707;43.886;12.874;2022-07-15T01:39:29;101180.63;;;23.18;44.68
46954;BME280;32707;43.886;12.874;2022-07-15T01:41:54;101168.81;;;23.19;44.76
46954;BME280;32707;43.886;12.874;2022-07-15T01:44:20;101170.50;;;23.24;44.51
46954;BME280;32707;43.886;12.874;2022-07-15T01:46:45;101163.97;;;23.27;44.16
46954;BME280;32707;43.886;12.874;2022-07-15T01:49:11;101172.56;;;23.31;44.45
46954;BME280;32707;43.886;12.874;2022-07-15T01:58:35;101160.75;;;23.32;44.16
46954;BME280;32707;43.886;12.874;2022-07-15T02:01:00;101156.22;;;23.31;44.34
46954;BME280;32707;43.886;12.874;2022-07-15T02:03:26;101154.63;;;23.30;44.32
46954;BME280;32707;43.886;12.874;2022-07-15T02:05:52;101150.09;;;23.29;44.51
46954;BME280;32707;43.886;12.874;2022-07-15T02:08:17;101146.44;;;23.28;44.51
46954;BME280;32707;43.886;12.874;2022-07-15T02:10:43;101147.66;;;23.24;44.63
46954;BME280;32707;43.886;12.874;2022-07-15T02:13:10;101143.56;;;23.21;44.75
46954;BME280;32707;43.886;12.874;2022-07-15T02:15:37;101138.25;;;23.16;44.71
46954;BME280;32707;43.886;12.874;2022-07-15T02:18:03;101142.69;;;23.10;44.86
46954;BME280;32707;43.886;12.874;2022-07-15T02:20:29;101140.63;;;23.03;45.17
46954;BME280;32707;43.886;12.874;2022-07-15T02:22:55;101139.31;;;22.97;45.15
46954;BME280;32707;43.886;12.874;2022-07-15T02:25:30;101137.66;;;22.93;45.48
46954;BME280;32707;43.886;12.874;2022-07-15T02:27:59;101139.28;;;22.90;45.35
46954;BME280;32707;43.886;12.874;2022-07-15T02:30:31;101130.28;;;22.88;45.52
46954;BME280;32707;43.886;12.874;2022-07-15T02:32:57;101133.13;;;22.88;45.50
46954;BME280;32707;43.886;12.874;2022-07-15T02:35:23;101142.16;;;22.90;45.37
46954;BME280;32707;43.886;12.874;2022-07-15T02:37:49;101133.97;;;22.88;45.44
46954;BME280;32707;43.886;12.874;2022-07-15T02:40:14;101135.22;;;22.91;45.45
46954;BME280;32707;43.886;12.874;2022-07-15T02:42:46;101137.28;;;22.94;45.48
46954;BME280;32707;43.886;12.874;2022-07-15T02:45:12;101133.59;;;22.97;45.41
46954;BME280;32707;43.886;12.874;2022-07-15T02:47:37;101129.94;;;22.97;45.26
46954;BME280;32707;43.886;12.874;2022-07-15T02:50:03;101130.78;;;23.01;45.24
46954;BME280;32707;43.886;12.874;2022-07-15T02:52:30;101140.56;;;23.00;45.26
46954;BME280;32707;43.886;12.874;2022-07-15T02:54:56;101139.75;;;22.99;45.53
46954;BME280;32707;43.886;12.874;2022-07-15T02:57:21;101141.78;;;22.99;45.31
46954;BME280;32707;43.886;12.874;2022-07-15T02:59:47;101139.72;;;22.96;45.37
46954;BME280;32707;43.886;12.874;2022-07-15T03:02:12;101133.56;;;22.94;45.34
46954;BME280;32707;43.886;12.874;2022-07-15T03:04:38;101136.84;;;22.92;45.36
46954;BME280;32707;43.886;12.874;2022-07-15T03:07:03;101138.47;;;22.93;45.34
46954;BME280;32707;43.886;12.874;2022-07-15T03:09:29;101139.28;;;22.94;45.45
46954;BME280;32707;43.886;12.874;2022-07-15T03:11:54;101138.88;;;22.91;45.60
46954;BME280;32707;43.886;12.874;2022-07-15T03:14:20;101139.72;;;22.92;45.37
46954;BME280;32707;43.886;12.874;2022-07-15T03:16:45;101137.25;;;22.90;45.63
46954;BME280;32707;43.886;12.874;2022-07-15T03:19:11;101133.53;;;22.83;45.61
46954;BME280;32707;43.886;12.874;2022-07-15T03:21:37;101136.00;;;22.88;45.49
46954;BME280;32707;43.886;12.874;2022-07-15T03:24:03;101140.06;;;22.87;45.37
46954;BME280;32707;43.886;12.874;2022-07-15T03:26:28;101129.47;;;22.87;45.60
46954;BME280;32707;43.886;12.874;2022-07-15T03:28:54;101139.28;;;22.90;45.44
46954;BME280;32707;43.886;12.874;2022-07-15T03:31:20;101133.59;;;22.90;45.43
46954;BME280;32707;43.886;12.874;2022-07-15T03:33:45;101134.81;;;22.93;45.43
46954;BME280;32707;43.886;12.874;2022-07-15T03:36:11;101127.47;;;22.95;45.30
46954;BME280;32707;43.886;12.874;2022-07-15T03:38:36;101133.59;;;22.97;45.32
46954;BME280;32707;43.886;12.874;2022-07-15T03:41:02;101134.06;;;22.99;45.30
46954;BME280;32707;43.886;12.874;2022-07-15T03:43:27;101130.78;;;23.01;45.20
46954;BME280;32707;43.886;12.874;2022-07-15T03:45:55;101131.63;;;23.01;45.07
46954;BME280;32707;43.886;12.874;2022-07-15T03:48:21;101134.47;;;23.01;45.35
46954;BME280;32707;43.886;12.874;2022-07-15T03:50:47;101131.19;;;22.99;45.44
46954;BME280;32707;43.886;12.874;2022-07-15T03:53:12;101140.97;;;22.98;45.30
46954;BME280;32707;43.886;12.874;2022-07-15T03:55:39;101137.28;;;22.98;45.30
46954;BME280;32707;43.886;12.874;2022-07-15T03:58:05;101130.75;;;22.97;45.29
46954;BME280;32707;43.886;12.874;2022-07-15T04:00:31;101135.25;;;22.98;45.39
46954;BME280;32707;43.886;12.874;2022-07-15T04:02:56;101132.00;;;23.00;45.23
46954;BME280;32707;43.886;12.874;2022-07-15T04:05:22;101136.91;;;23.03;45.31
46954;BME280;32707;43.886;12.874;2022-07-15T04:07:48;101132.91;;;23.07;45.31
46954;BME280;32707;43.886;12.874;2022-07-15T04:10:14;101125.94;;;23.08;45.11
46954;BME280;32707;43.886;12.874;2022-07-15T04:12:40;101128.41;;;23.10;45.17
46954;BME280;32707;43.886;12.874;2022-07-15T04:15:06;101132.53;;;23.13;45.08
46954;BME280;32707;43.886;12.874;2022-07-15T04:17:33;101136.59;;;23.15;44.88
46954;BME280;32707;43.886;12.874;2022-07-15T04:19:58;101137.81;;;23.18;45.09
46954;BME280;32707;43.886;12.874;2022-07-15T04:22:24;101134.19;;;23.21;45.03
46954;BME280;32707;43.886;12.874;2022-07-15T04:24:49;101137.06;;;23.24;45.03
46954;BME280;32707;43.886;12.874;2022-07-15T04:27:15;101131.38;;;23.32;44.95
46954;BME280;32707;43.886;12.874;2022-07-15T04:29:40;101142.81;;;23.35;44.84
46954;BME280;32707;43.886;12.874;2022-07-15T04:32:06;101135.88;;;23.40;44.72
46954;BME280;32707;43.886;12.874;2022-07-15T04:34:32;101143.69;;;23.46;44.84
46954;BME280;32707;43.886;12.874;2022-07-15T04:36:57;101143.69;;;23.54;44.54
46954;BME280;32707;43.886;12.874;2022-07-15T04:39:23;101141.69;;;23.58;44.47
46954;BME280;32707;43.886;12.874;2022-07-15T04:41:48;101140.47;;;23.66;44.38
46954;BME280;32707;43.886;12.874;2022-07-15T04:44:17;101144.16;;;23.77;44.26
46954;BME280;32707;43.886;12.874;2022-07-15T04:46:42;101142.59;;;23.87;44.09
46954;BME280;32707;43.886;12.874;2022-07-15T04:49:08;101143.00;;;23.96;43.93
46954;BME280;32707;43.886;12.874;2022-07-15T04:51:52;101142.63;;;24.09;43.76
46954;BME280;32707;43.886;12.874;2022-07-15T04:54:17;101141.41;;;24.20;43.61
46954;BME280;32707;43.886;12.874;2022-07-15T04:56:43;101140.63;;;24.31;43.54
46954;BME280;32707;43.886;12.874;2022-07-15T04:59:08;101138.16;;;24.40;43.32
46954;BME280;32707;43.886;12.874;2022-07-15T05:01:34;101134.06;;;24.48;43.12
46954;BME280;32707;43.886;12.874;2022-07-15T05:03:59;101153.28;;;24.58;43.07
46954;BME280;32707;43.886;12.874;2022-07-15T05:06:25;101147.56;;;24.66;43.08
46954;BME280;32707;43.886;12.874;2022-07-15T05:08:50;101141.44;;;24.74;42.95
46954;BME280;32707;43.886;12.874;2022-07-15T05:11:16;101139.78;;;24.88;42.75
46954;BME280;32707;43.886;12.874;2022-07-15T05:13:42;101148.34;;;25.02;42.64
46954;BME280;32707;43.886;12.874;2022-07-15T05:16:07;101158.91;;;25.16;42.29
46954;BME280;32707;43.886;12.874;2022-07-15T05:18:33;101160.13;;;25.29;42.21
46954;BME280;32707;43.886;12.874;2022-07-15T05:20:58;101155.97;;;25.45;41.92
46954;BME280;32707;43.886;12.874;2022-07-15T05:23:24;101146.13;;;25.53;41.92
46954;BME280;32707;43.886;12.874;2022-07-15T05:25:50;101146.50;;;25.58;41.68
46954;BME280;32707;43.886;12.874;2022-07-15T05:28:15;101152.16;;;25.73;41.63
46954;BME280;32707;43.886;12.874;2022-07-15T05:30:41;101150.06;;;25.80;41.66
46954;BME280;32707;43.886;12.874;2022-07-15T05:33:07;101159.41;;;25.95;41.42
46954;BME280;32707;43.886;12.874;2022-07-15T05:35:32;101158.91;;;26.11;41.26
46954;BME280;32707;43.886;12.874;2022-07-15T05:37:58;101160.47;;;26.23;41.10
46954;BME280;32707;43.886;12.874;2022-07-15T05:40:23;101162.84;;;26.35;40.74
46954;BME280;32707;43.886;12.874;2022-07-15T05:42:49;101168.84;;;26.48;40.73
46954;BME280;32707;43.886;12.874;2022-07-15T05:45:17;101164.28;;;26.62;40.68
46954;BME280;32707;43.886;12.874;2022-07-15T05:47:50;101164.13;;;26.76;40.18
46954;BME280;32707;43.886;12.874;2022-07-15T05:50:16;101165.63;;;26.91;40.26
46954;BME280;32707;43.886;12.874;2022-07-15T05:52:42;101170.41;;;27.05;39.89
46954;BME280;32707;43.886;12.874;2022-07-15T05:55:07;101170.69;;;27.18;39.62
46954;BME280;32707;43.886;12.874;2022-07-15T05:57:33;101166.44;;;27.33;39.58
46954;BME280;32707;43.886;12.874;2022-07-15T05:59:58;101166.56;;;27.53;39.04
46954;BME280;32707;43.886;12.874;2022-07-15T06:02:24;101170.47;;;27.70;38.98
46954;BME280;32707;43.886;12.874;2022-07-15T06:04:49;101172.38;;;27.81;38.80
46954;BME280;32707;43.886;12.874;2022-07-15T06:07:15;101170.16;;;27.96;38.52
46954;BME280;32707;43.886;12.874;2022-07-15T06:09:40;101164.19;;;28.10;38.39
46954;BME280;32707;43.886;12.874;2022-07-15T06:12:06;101172.56;;;28.24;38.27
46954;BME280;32707;43.886;12.874;2022-07-15T06:14:31;101181.00;;;28.39;37.89
46954;BME280;32707;43.886;12.874;2022-07-15T06:16:57;101170.91;;;28.50;37.81
46954;BME280;32707;43.886;12.874;2022-07-15T06:19:22;101174.03;;;28.63;37.63
46954;BME280;32707;43.886;12.874;2022-07-15T06:21:48;101177.03;;;28.80;37.31
46954;BME280;32707;43.886;12.874;2022-07-15T06:24:13;101173.56;;;28.88;37.08
46954;BME280;32707;43.886;12.874;2022-07-15T06:26:39;101174.47;;;29.05;36.87
46954;BME280;32707;43.886;12.874;2022-07-15T06:29:05;101175.34;;;29.26;36.75
46954;BME280;32707;43.886;12.874;2022-07-15T06:31:30;101185.72;;;29.43;36.34
46954;BME280;32707;43.886;12.874;2022-07-15T06:33:56;101175.94;;;29.57;36.19
46954;BME280;32707;43.886;12.874;2022-07-15T06:36:25;101170.75;;;29.69;36.04
46954;BME280;32707;43.886;12.874;2022-07-15T06:38:50;101170.84;;;29.85;35.62
46954;BME280;32707;43.886;12.874;2022-07-15T06:41:16;101169.53;;;30.06;35.53
46954;BME280;32707;43.886;12.874;2022-07-15T06:43:44;101169.81;;;30.12;35.14
46954;BME280;32707;43.886;12.874;2022-07-15T06:46:10;101177.94;;;30.17;35.05
46954;BME280;32707;43.886;12.874;2022-07-15T06:48:36;101167.84;;;30.25;35.14
46954;BME280;32707;43.886;12.874;2022-07-15T06:51:03;101178.53;;;30.45;34.57
46954;BME280;32707;43.886;12.874;2022-07-15T06:53:29;101173.44;;;30.65;34.54
46954;BME280;32707;43.886;12.874;2022-07-15T06:55:54;101174.06;;;30.89;33.90
46954;BME280;32707;43.886;12.874;2022-07-15T06:58:20;101177.91;;;31.15;33.86
46954;BME280;32707;43.886;12.874;2022-07-15T07:00:45;101165.84;;;31.33;33.19
46954;BME280;32707;43.886;12.874;2022-07-15T07:03:11;101174.56;;;31.46;33.26
46954;BME280;32707;43.886;12.874;2022-07-15T07:05:36;101181.00;;;31.67;33.23
46954;BME280;32707;43.886;12.874;2022-07-15T07:08:04;101166.66;;;31.89;32.58
46954;BME280;32707;43.886;12.874;2022-07-15T07:10:29;101174.81;;;32.07;32.42
46954;BME280;32707;43.886;12.874;2022-07-15T07:12:55;101177.50;;;32.14;32.25
46954;BME280;32707;43.886;12.874;2022-07-15T07:15:20;101174.38;;;32.21;32.05
46954;BME280;32707;43.886;12.874;2022-07-15T07:17:50;101169.97;;;32.29;31.88
46954;BME280;32707;43.886;12.874;2022-07-15T07:20:16;101172.28;;;32.47;31.42
46954;BME280;32707;43.886;12.874;2022-07-15T07:22:42;101175.84;;;32.64;31.27
46954;BME280;32707;43.886;12.874;2022-07-15T07:25:07;101170.13;;;32.73;30.82
46954;BME280;32707;43.886;12.874;2022-07-15T07:27:33;101169.31;;;32.86;30.71
46954;BME280;32707;43.886;12.874;2022-07-15T07:29:59;101171.56;;;33.04;30.39
46954;BME280;32707;43.886;12.874;2022-07-15T07:32:27;101176.84;;;33.18;30.10
46954;BME280;32707;43.886;12.874;2022-07-15T07:34:52;101171.19;;;33.37;29.75
46954;BME280;32707;43.886;12.874;2022-07-15T07:37:18;101169.16;;;33.46;29.58
46954;BME280;32707;43.886;12.874;2022-07-15T07:39:43;101172.78;;;33.50;29.73
46954;BME280;32707;43.886;12.874;2022-07-15T07:42:09;101162.97;;;33.57;29.47
46954;BME280;32707;43.886;12.874;2022-07-15T07:44:35;101167.59;;;33.67;29.42
46954;BME280;32707;43.886;12.874;2022-07-15T07:47:02;101161.97;;;33.73;29.51
46954;BME280;32707;43.886;12.874;2022-07-15T07:49:27;101164.56;;;33.80;29.57
46954;BME280;32707;43.886;12.874;2022-07-15T07:51:53;101159.19;;;34.01;29.23
46954;BME280;32707;43.886;12.874;2022-07-15T07:54:19;101152.06;;;34.24;28.85
46954;BME280;32707;43.886;12.874;2022-07-15T07:56:44;101155.59;;;34.19;29.34
46954;BME280;32707;43.886;12.874;2022-07-15T07:59:11;101152.25;;;34.30;29.13
46954;BME280;32707;43.886;12.874;2022-07-15T08:01:36;101154.19;;;34.33;28.77
46954;BME280;32707;43.886;12.874;2022-07-15T08:04:02;101146.81;;;34.50;28.71
46954;BME280;32707;43.886;12.874;2022-07-15T08:06:28;101148.19;;;34.77;28.21
46954;BME280;32707;43.886;12.874;2022-07-15T08:08:53;101156.75;;;34.99;28.33
46954;BME280;32707;43.886;12.874;2022-07-15T08:11:19;101148.19;;;35.32;27.96
46954;BME280;32707;43.886;12.874;2022-07-15T08:13:47;101149.56;;;35.74;27.16
46954;BME280;32707;43.886;12.874;2022-07-15T08:16:13;101154.28;;;36.14;26.94
46954;BME280;32707;43.886;12.874;2022-07-15T08:18:39;101152.81;;;36.52;26.73
46954;BME280;32707;43.886;12.874;2022-07-15T08:21:04;101154.09;;;36.99;26.35
46954;BME280;32707;43.886;12.874;2022-07-15T08:23:30;101144.97;;;37.45;26.04
46954;BME280;32707;43.886;12.874;2022-07-15T08:25:58;101137.09;;;37.96;25.71
46954;BME280;32707;43.886;12.874;2022-07-15T08:28:23;101138.91;;;38.44;25.47
46954;BME280;32707;43.886;12.874;2022-07-15T08:30:50;101137.72;;;38.92;24.94
46954;BME280;32707;43.886;12.874;2022-07-15T08:33:15;101141.72;;;39.41;24.33
46954;BME280;32707;43.886;12.874;2022-07-15T08:35:41;101146.41;;;39.85;23.96
46954;BME280;32707;43.886;12.874;2022-07-15T08:38:07;101143.63;;;40.39;23.37
46954;BME280;32707;43.886;12.874;2022-07-15T08:40:36;101135.31;;;40.75;23.28
46954;BME280;32707;43.886;12.874;2022-07-15T08:43:06;101130.66;;;41.12;22.93
46954;BME280;32707;43.886;12.874;2022-07-15T08:45:34;101136.88;;;41.53;22.80
46954;BME280;32707;43.886;12.874;2022-07-15T08:48:01;101129.44;;;41.86;22.60
46954;BME280;32707;43.886;12.874;2022-07-15T08:50:27;101133.69;;;42.25;21.94
46954;BME280;32707;43.886;12.874;2022-07-15T08:52:54;101140.56;;;42.61;21.75
46954;BME280;32707;43.886;12.874;2022-07-15T08:55:20;101145.53;;;42.83;21.25
46954;BME280;32707;43.886;12.874;2022-07-15T08:57:47;101126.00;;;42.97;21.44
46954;BME280;32707;43.886;12.874;2022-07-15T09:00:15;101134.03;;;42.91;21.22
46954;BME280;32707;43.886;12.874;2022-07-15T09:02:42;101129.16;;;43.05;20.95
46954;BME280;32707;43.886;12.874;2022-07-15T09:05:30;101130.91;;;43.19;20.96
46954;BME280;32707;43.886;12.874;2022-07-15T09:10:43;101136.75;;;43.72;20.17
46954;BME280;32707;43.886;12.874;2022-07-15T09:15:47;101137.41;;;43.90;20.16
46954;BME280;32707;43.886;12.874;2022-07-15T09:18:16;101124.53;;;43.93;20.08
46954;BME280;32707;43.886;12.874;2022-07-15T09:20:43;101134.88;;;43.99;19.61
46954;BME280;32707;43.886;12.874;2022-07-15T09:23:12;101123.69;;;44.22;19.46
46954;BME280;32707;43.886;12.874;2022-07-15T09:25:44;101133.41;;;44.42;19.21
46954;BME280;32707;43.886;12.874;2022-07-15T09:28:10;101142.25;;;44.42;19.46
46954;BME280;32707;43.886;12.874;2022-07-15T09:30:40;101130.50;;;44.36;19.21
46954;BME280;32707;43.886;12.874;2022-07-15T09:36:13;101131.16;;;44.73;18.63
46954;BME280;32707;43.886;12.874;2022-07-15T09:41:30;101135.22;;;44.94;18.04
46954;BME280;32707;43.886;12.874;2022-07-15T09:49:07;101141.47;;;44.85;18.22
46954;BME280;32707;43.886;12.874;2022-07-15T09:51:43;101136.00;;;44.95;18.22
46954;BME280;32707;43.886;12.874;2022-07-15T09:54:11;101140.06;;;45.11;17.78
46954;BME280;32707;43.886;12.874;2022-07-15T09:56:37;101140.78;;;45.36;17.73
46954;BME280;32707;43.886;12.874;2022-07-15T09:59:03;101130.91;;;45.33;17.49
46954;BME280;32707;43.886;12.874;2022-07-15T10:01:29;101139.25;;;45.10;17.67
46954;BME280;32707;43.886;12.874;2022-07-15T10:03:56;101130.44;;;44.86;18.00
46954;BME280;32707;43.886;12.874;2022-07-15T10:06:25;101128.06;;;44.84;17.69
46954;BME280;32707;43.886;12.874;2022-07-15T10:08:52;101139.41;;;44.99;17.76
46954;BME280;32707;43.886;12.874;2022-07-15T10:11:19;101135.69;;;44.98;17.48
46954;BME280;32707;43.886;12.874;2022-07-15T10:16:48;101136.09;;;44.64;17.70
46954;BME280;32707;43.886;12.874;2022-07-15T10:25:59;101136.00;;;43.60;18.27
46954;BME280;32707;43.886;12.874;2022-07-15T10:31:20;101134.56;;;43.78;18.01
46954;BME280;32707;43.886;12.874;2022-07-15T10:36:38;101126.13;;;43.58;18.42
46954;BME280;32707;43.886;12.874;2022-07-15T10:39:05;101133.56;;;43.70;18.16
46954;BME280;32707;43.886;12.874;2022-07-15T10:41:53;101130.16;;;43.55;18.23
46954;BME280;32707;43.886;12.874;2022-07-15T10:44:20;101130.19;;;43.49;18.53
46954;BME280;32707;43.886;12.874;2022-07-15T10:46:46;101130.28;;;43.74;18.41
46954;BME280;32707;43.886;12.874;2022-07-15T10:54:07;101129.53;;;43.26;18.93
46954;BME280;32707;43.886;12.874;2022-07-15T10:56:37;101114.03;;;43.25;18.96
46954;BME280;32707;43.886;12.874;2022-07-15T10:59:15;101111.91;;;43.20;19.06
46954;BME280;32707;43.886;12.874;2022-07-15T11:01:43;101107.75;;;43.46;18.66
46954;BME280;32707;43.886;12.874;2022-07-15T11:04:24;101103.53;;;43.72;18.38
46954;BME280;32707;43.886;12.874;2022-07-15T11:12:24;101110.22;;;44.02;18.74
46954;BME280;32707;43.886;12.874;2022-07-15T11:15:21;101097.38;;;44.00;18.90
46954;BME280;32707;43.886;12.874;2022-07-15T11:17:50;101108.59;;;44.01;19.15
46954;BME280;32707;43.886;12.874;2022-07-15T11:20:19;101104.13;;;43.95;19.29
46954;BME280;32707;43.886;12.874;2022-07-15T11:22:53;101107.88;;;43.95;19.47
46954;BME280;32707;43.886;12.874;2022-07-15T11:25:39;101103.13;;;43.86;19.62
46954;BME280;32707;43.886;12.874;2022-07-15T11:33:06;101091.06;;;42.71;20.88
46954;BME280;32707;43.886;12.874;2022-07-15T11:35:46;101086.84;;;42.55;21.19
46954;BME280;32707;43.886;12.874;2022-07-15T11:38:15;101087.31;;;42.65;20.92
46954;BME280;32707;43.886;12.874;2022-07-15T11:40:50;101093.41;;;42.84;21.25
46954;BME280;32707;43.886;12.874;2022-07-15T11:43:34;101085.91;;;42.88;20.85
46954;BME280;32707;43.886;12.874;2022-07-15T11:46:18;101091.03;;;42.77;21.09
46954;BME280;32707;43.886;12.874;2022-07-15T11:48:44;101076.84;;;42.75;21.39
46954;BME280;32707;43.886;12.874;2022-07-15T11:51:11;101084.63;;;42.72;21.55
46954;BME280;32707;43.886;12.874;2022-07-15T11:53:42;101082.25;;;42.65;21.77
46954;BME280;32707;43.886;12.874;2022-07-15T11:56:10;101075.63;;;42.42;21.43
46954;BME280;32707;43.886;12.874;2022-07-15T11:58:40;101076.78;;;42.17;21.84
46954;BME280;32707;43.886;12.874;2022-07-15T12:01:18;101073.91;;;41.83;22.27
46954;BME280;32707;43.886;12.874;2022-07-15T12:03:46;101084.31;;;41.67;22.69
46954;BME280;32707;43.886;12.874;2022-07-15T12:14:01;101058.50;;;40.17;23.91
46954;BME280;32707;43.886;12.874;2022-07-15T12:19:00;101056.75;;;39.56;24.32
46954;BME280;32707;43.886;12.874;2022-07-15T12:21:27;101058.28;;;39.25;25.00
46954;BME280;32707;43.886;12.874;2022-07-15T12:26:24;101064.19;;;38.58;25.16
46954;BME280;32707;43.886;12.874;2022-07-15T12:28:58;101061.91;;;38.47;25.63
46954;BME280;32707;43.886;12.874;2022-07-15T12:31:29;101056.63;;;38.51;24.86
46954;BME280;32707;43.886;12.874;2022-07-15T12:33:59;101066.34;;;38.42;25.12
46954;BME280;32707;43.886;12.874;2022-07-15T12:36:30;101059.56;;;38.30;25.27
46954;BME280;32707;43.886;12.874;2022-07-15T12:39:14;101055.97;;;38.21;25.34
46954;BME280;32707;43.886;12.874;2022-07-15T12:41:42;101047.88;;;38.30;24.98
46954;BME280;32707;43.886;12.874;2022-07-15T12:44:08;101049.84;;;38.39;24.60
46954;BME280;32707;43.886;12.874;2022-07-15T12:47:04;101058.88;;;38.56;24.90
46954;BME280;32707;43.886;12.874;2022-07-15T12:49:49;101046.56;;;38.73;24.32
46954;BME280;32707;43.886;12.874;2022-07-15T12:52:37;101039.16;;;38.77;24.62
46954;BME280;32707;43.886;12.874;2022-07-15T12:57:38;101048.47;;;38.55;24.65
46954;BME280;32707;43.886;12.874;2022-07-15T13:02:55;101033.25;;;38.30;24.59
46954;BME280;32707;43.886;12.874;2022-07-15T13:05:23;101033.78;;;38.29;24.50
46954;BME280;32707;43.886;12.874;2022-07-15T13:07:49;101036.75;;;38.35;24.88
46954;BME280;32707;43.886;12.874;2022-07-15T13:10:14;101028.53;;;38.33;24.59
46954;BME280;32707;43.886;12.874;2022-07-15T13:12:40;101019.44;;;38.31;24.92
46954;BME280;32707;43.886;12.874;2022-07-15T13:15:06;101009.22;;;38.41;24.87
46954;BME280;32707;43.886;12.874;2022-07-15T13:17:32;101023.97;;;38.53;24.36
46954;BME280;32707;43.886;12.874;2022-07-15T13:19:57;101022.06;;;38.49;24.56
46954;BME280;32707;43.886;12.874;2022-07-15T13:22:23;101025.22;;;38.46;24.80
46954;BME280;32707;43.886;12.874;2022-07-15T13:24:49;101028.44;;;38.48;24.76
46954;BME280;32707;43.886;12.874;2022-07-15T13:27:15;101017.28;;;38.46;24.77
46954;BME280;32707;43.886;12.874;2022-07-15T13:29:41;101019.59;;;38.42;24.58
46954;BME280;32707;43.886;12.874;2022-07-15T13:32:06;101018.22;;;38.38;24.37
46954;BME280;32707;43.886;12.874;2022-07-15T13:34:35;101016.16;;;38.44;24.10
46954;BME280;32707;43.886;12.874;2022-07-15T13:37:01;101015.88;;;38.21;24.46
46954;BME280;32707;43.886;12.874;2022-07-15T13:39:26;101023.56;;;38.19;24.68
46954;BME280;32707;43.886;12.874;2022-07-15T13:41:52;101020.13;;;38.20;24.32
46954;BME280;32707;43.886;12.874;2022-07-15T13:44:20;101005.88;;;38.28;24.11
46954;BME280;32707;43.886;12.874;2022-07-15T13:46:48;101000.69;;;38.17;24.68
46954;BME280;32707;43.886;12.874;2022-07-15T13:49:17;101016.56;;;37.96;24.69
46954;BME280;32707;43.886;12.874;2022-07-15T13:51:42;101012.28;;;37.76;24.62
46954;BME280;32707;43.886;12.874;2022-07-15T13:54:08;101006.88;;;37.69;24.65
46954;BME280;32707;43.886;12.874;2022-07-15T13:56:41;101012.50;;;37.58;24.56